Baltic, SD

10:37 PM CDT on August 21, 2014 (GMT -0500)
477th | Change Station
CLOSE
Current Station
Personal Weather Station
Location: Baltic, SD
Elevation: 1562 ft
Nearby Weather Stations

Elev 1562 ft 43.71 °N, 96.67 °W | Updated 10 minutes ago

Scattered Clouds
Scattered Clouds
70.2 °F
Feels Like 70.2 °F
N
2.2
Wind Variable Wind from NE

Today
High -- | Low -- °F
--% Chance of Precip.
Yesterday
High -- | Low -- °F
Precip. -- in
6:38 AM 8:21 PM
Waning Crescent, 10% visible
Pressure 29.87 in
Visibility 10.0 miles
Clouds Scattered Clouds 25000 ft
Dew Point 68 °F
Humidity 92%
Rainfall 0.00 in
Snow Depth Not available.
UV 0 out of 12
Pollen 4.20 out of 12
Air Quality Not available.
Flu Activity Not available.
METAR KFSD 220256Z 02004KT 10SM SCT250 23/21 A2989 RMK AO2 SLP113 T02330206 53017

More Conditions Fewer Conditions

Pressure 29.87 in
Visibility 10.0 miles
Clouds Scattered Clouds 25000 ft
Dew Point 68 °F
Humidity 92%
Rainfall 0.00 in
Snow Depth Not available.
UV 0 out of 12
Pollen 4.20 out of 12
Air Quality Not available.
Flu Activity Not available.
METAR KFSD 220256Z 02004KT 10SM SCT250 23/21 A2989 RMK AO2 SLP113 T02330206 53017

More Conditions Fewer Conditions

10-Day Weather Forecast

Almanac

Astronomy

Aug. 21, 2014 Rise Set
Actual Time 6:38 AM CDT 8:21 PM CDT
Civil Twilight 6:07 AM CDT 8:51 PM CDT
Nautical Twilight 5:30 AM CDT 9:28 PM CDT
Astronomical Twilight 4:50 AM CDT 10:08 PM CDT
Moon 3:06 AM CDT (8/21) 5:53 PM CDT (8/21)
Length of Visible Light 14h 44m
Length of Day
13h 43m
Tomorrow will be 2m 47s shorter.
Waning Crescent, 10% of the Moon is Illuminated
Today
Waning Crescent
Aug 25
New
Sep 2
First Quarter
Sep 8
Full
Sep 15
Last Quarter

Today's Extremes

State Highs State Lows

Community

WunderPhotos

Upload Photos

1,746,126 photos uploaded!

Nearby

Snow Depth

Station Depth Elevation
Blind Park 0 in 6890 ft

Earthquake Activity

City Distance Mag. Time & Date
No recent earthquake activity has been reported nearby.
Minimum magnitude displayed is 2.5.

Coastal Water Temperatures

Place Temperature
No Stations Reporting

Nearby Weather Stations